Time;durP1;ratioP1;P1;durP2;ratioP2;P2;SDS_P1;SDS_P2;PMS_P1;PMS_P2;Temp;Humidity;BMP_temperature;BMP_pressure;BME280_temperature;BME280_humidity;BME280_pressure;Samples;Min_cycle;Max_cycle;Signal;HPM_P1;HPM_P2
2021/06/16 00:01:17;;;;;;;11.13;3.47;;;18.20;55.20;17.60;101766.00;;;;5038557;28;20135;-67
2021/06/16 00:03:43;;;;;;;9.50;3.45;;;18.20;55.50;17.60;101772.00;;;;5039952;28;20128;-67
2021/06/16 00:06:09;;;;;;;8.38;3.35;;;18.20;55.80;17.60;101767.00;;;;5037858;28;20056;-67
2021/06/16 00:08:35;;;;;;;11.38;3.65;;;18.20;56.00;17.60;101763.00;;;;5039945;28;20049;-68
2021/06/16 00:11:01;;;;;;;10.27;3.47;;;18.10;56.00;17.50;101762.00;;;;5039795;28;20040;-68
2021/06/16 00:13:27;;;;;;;10.03;3.53;;;18.10;56.20;17.50;101751.00;;;;5039547;28;20056;-68
2021/06/16 00:15:53;;;;;;;9.20;3.45;;;18.10;56.80;17.40;101757.00;;;;5041449;28;20041;-68
2021/06/16 00:18:19;;;;;;;10.23;3.40;;;18.10;56.40;17.40;101744.00;;;;5034236;28;20045;-67
2021/06/16 00:20:45;;;;;;;11.95;3.13;;;18.00;55.50;17.40;101747.00;;;;5035292;28;20110;-67
2021/06/16 00:23:11;;;;;;;12.35;3.17;;;18.00;56.50;17.40;101749.00;;;;5039984;28;20120;-67
2021/06/16 00:25:37;;;;;;;7.28;3.40;;;18.00;56.60;17.40;101742.00;;;;5038149;28;20087;-67
2021/06/16 00:28:04;;;;;;;7.03;3.17;;;18.00;56.50;17.30;101752.00;;;;5038628;28;20127;-68
2021/06/16 00:30:31;;;;;;;7.10;2.97;;;18.00;56.60;17.30;101741.00;;;;5038512;28;20063;-67
2021/06/16 00:32:57;;;;;;;8.70;3.65;;;18.00;56.80;17.30;101744.00;;;;5035652;28;20037;-67
2021/06/16 00:35:23;;;;;;;8.85;3.28;;;17.90;56.60;17.30;101740.00;;;;5036854;28;20065;-68
2021/06/16 00:37:51;;;;;;;13.82;3.05;;;17.90;56.60;17.30;101739.00;;;;5021134;28;20569;-68
2021/06/16 00:40:20;;;;;;;14.98;3.33;;;17.90;56.80;17.30;101738.00;;;;5035362;28;20539;-68
2021/06/16 00:42:46;;;;;;;7.40;2.92;;;17.90;57.00;17.30;101726.00;;;;5035399;28;21023;-68
2021/06/16 00:45:13;;;;;;;10.10;2.60;;;17.80;55.70;17.30;101727.00;;;;5036603;28;20025;-67
2021/06/16 00:47:40;;;;;;;7.38;3.15;;;17.80;56.70;17.30;101727.00;;;;5029935;28;20033;-67
2021/06/16 00:50:08;;;;;;;8.05;3.00;;;17.90;56.80;17.30;101734.00;;;;5034306;28;20656;-68
2021/06/16 00:52:34;;;;;;;9.77;2.90;;;17.90;56.70;17.30;101723.00;;;;5035688;28;20938;-67
2021/06/16 00:55:00;;;;;;;9.43;2.65;;;17.90;56.60;17.30;101722.00;;;;5033620;28;20045;-67
2021/06/16 00:57:27;;;;;;;9.05;3.00;;;17.90;56.60;17.30;101726.00;;;;5036836;28;20684;-67
2021/06/16 01:00:19;;;;;;;8.00;2.97;;;17.90;56.70;17.20;101728.00;;;;5033861;28;20053;-67
2021/06/16 01:03:20;;;;;;;7.32;3.20;;;17.80;56.70;17.20;101717.00;;;;5035412;28;20080;-68
2021/06/16 01:06:03;;;;;;;10.27;3.17;;;17.80;56.60;17.20;101724.00;;;;5036771;28;20106;-68
2021/06/16 01:08:36;;;;;;;10.30;2.95;;;17.80;56.50;17.20;101723.00;;;;5035231;28;20476;-68
2021/06/16 01:11:07;;;;;;;7.03;2.90;;;17.80;56.50;17.20;101729.00;;;;5026792;28;20148;-68
2021/06/16 01:13:55;;;;;;;12.77;2.90;;;17.80;56.60;17.20;101713.00;;;;5051664;28;20997;-68
2021/06/16 01:16:36;;;;;;;11.90;3.30;;;17.80;56.80;17.20;101706.00;;;;5036289;28;20120;-68
2021/06/16 01:19:17;;;;;;;8.50;2.80;;;17.80;56.60;17.10;101719.00;;;;5038596;28;20040;-68
2021/06/16 01:21:47;;;;;;;6.75;2.70;;;17.80;56.60;17.20;101719.00;;;;5019990;28;20049;-67
2021/06/16 01:24:19;;;;;;;10.75;3.30;;;17.80;56.50;17.20;101718.00;;;;5053219;28;20025;-68
2021/06/16 01:26:54;;;;;;;9.68;3.47;;;17.80;56.70;17.10;101709.00;;;;5037185;28;20080;-68
2021/06/16 01:29:37;;;;;;;11.95;3.10;;;17.80;56.70;17.10;101718.00;;;;5014429;28;20380;-68
2021/06/16 01:32:05;;;;;;;6.55;2.78;;;17.70;56.70;17.10;101715.00;;;;5041401;28;20533;-68
2021/06/16 01:34:31;;;;;;;9.48;3.42;;;17.70;57.00;17.10;101716.00;;;;5041376;28;20084;-67
2021/06/16 01:36:59;;;;;;;11.00;3.03;;;17.70;56.80;17.10;101712.00;;;;5043633;28;20079;-66
2021/06/16 01:39:30;;;;;;;8.50;3.10;;;17.70;57.00;17.00;101713.00;;;;5042647;28;20037;-68
2021/06/16 01:41:59;;;;;;;8.80;3.05;;;17.60;57.20;17.00;101709.00;;;;5029675;28;20041;-67
2021/06/16 01:44:26;;;;;;;11.48;3.42;;;17.60;57.30;17.00;101702.00;;;;5051690;28;20056;-67
2021/06/16 01:46:53;;;;;;;9.13;3.20;;;17.60;57.20;17.00;101702.00;;;;5035720;28;20484;-67
2021/06/16 01:49:27;;;;;;;9.02;3.33;;;17.60;57.50;17.00;101707.00;;;;5055304;28;20055;-67
2021/06/16 01:51:54;;;;;;;12.25;3.17;;;17.60;57.40;17.00;101694.00;;;;5038435;28;20057;-67
2021/06/16 01:54:21;;;;;;;10.20;3.30;;;17.60;57.40;17.00;101703.00;;;;5040208;28;20057;-67
2021/06/16 01:56:49;;;;;;;8.52;2.78;;;17.60;57.50;17.00;101700.00;;;;5041915;28;20041;-67
2021/06/16 01:59:16;;;;;;;6.80;2.92;;;17.60;57.70;17.00;101694.00;;;;5041967;28;20396;-67
2021/06/16 02:01:46;;;;;;;8.60;3.17;;;17.50;57.50;17.00;101694.00;;;;5040573;28;21325;-67
2021/06/16 02:04:13;;;;;;;7.10;2.90;;;17.50;57.70;17.00;101693.00;;;;5037203;28;20052;-67
2021/06/16 02:06:42;;;;;;;9.80;3.33;;;17.60;57.60;16.90;101695.00;;;;5039406;28;20091;-67
2021/06/16 02:09:12;;;;;;;10.65;3.83;;;17.60;57.50;17.00;101699.00;;;;5056850;28;20064;-67
2021/06/16 02:11:41;;;;;;;11.50;2.88;;;17.60;57.60;17.00;101693.00;;;;5042401;28;20095;-67
2021/06/16 02:14:11;;;;;;;13.77;3.53;;;17.60;57.70;16.90;101687.00;;;;5042484;28;20053;-68
2021/06/16 02:17:01;;;;;;;9.45;3.28;;;17.50;57.70;16.90;101690.00;;;;5040018;28;20049;-68
2021/06/16 02:19:31;;;;;;;8.15;2.97;;;18.10;58.20;17.00;101694.00;;;;5032714;28;20087;-68
2021/06/16 02:21:58;;;;;;;10.27;2.97;;;17.50;57.60;17.00;101691.00;;;;5039716;28;20088;-68
2021/06/16 02:24:24;;;;;;;9.98;3.75;;;17.50;57.70;17.00;101682.00;;;;5032890;28;20037;-67
2021/06/16 02:26:51;;;;;;;13.02;3.00;;;17.50;57.70;17.00;101685.00;;;;5038565;28;20107;-67
2021/06/16 02:29:18;;;;;;;9.10;3.22;;;17.50;57.50;17.00;101679.00;;;;5039672;28;20037;-69
2021/06/16 02:31:44;;;;;;;;;;;17.50;57.50;16.90;101670.00;;;;5039404;28;20413;-70
2021/06/16 02:34:11;;;;;;;8.75;2.97;;;17.50;57.70;16.90;101670.00;;;;5036156;28;19978;-69
2021/06/16 02:36:44;;;;;;;7.30;2.65;;;17.60;58.80;17.00;101675.00;;;;5038023;28;20052;-68
2021/06/16 02:39:24;;;;;;;9.10;3.17;;;17.50;57.80;16.90;101665.00;;;;5037563;28;20045;-69
2021/06/16 02:41:51;;;;;;;7.35;3.03;;;17.50;58.00;16.90;101667.00;;;;5032380;28;20041;-67
2021/06/16 02:44:18;;;;;;;7.88;2.92;;;17.60;58.10;16.90;101660.00;;;;5038614;28;20119;-67
2021/06/16 02:46:51;;;;;;;8.55;3.33;;;17.50;58.00;16.90;101661.00;;;;5029301;28;20508;-67
2021/06/16 02:49:23;;;;;;;7.43;2.95;;;17.50;58.20;16.90;101657.00;;;;5039726;28;20049;-68
2021/06/16 02:51:49;;;;;;;8.07;3.20;;;17.50;58.20;16.90;101660.00;;;;5035318;28;20051;-67
2021/06/16 02:54:17;;;;;;;8.52;2.90;;;17.50;58.40;16.90;101665.00;;;;5041121;28;20045;-67
2021/06/16 02:56:45;;;;;;;7.22;3.25;;;17.50;58.60;16.90;101652.00;;;;5024377;28;20127;-67
2021/06/16 02:59:14;;;;;;;6.82;2.85;;;17.50;58.60;16.80;101654.00;;;;5024070;28;20060;-67
2021/06/16 03:01:40;;;;;;;10.00;3.30;;;17.40;58.50;16.80;101651.00;;;;5036178;28;20077;-67
2021/06/16 03:04:07;;;;;;;7.37;3.37;;;17.50;58.60;16.90;101660.00;;;;5040696;28;21255;-67
2021/06/16 03:06:33;;;;;;;8.45;2.90;;;17.50;58.80;16.80;101645.00;;;;5040296;28;20095;-68
2021/06/16 03:09:01;;;;;;;12.73;3.47;;;17.50;58.70;16.80;101641.00;;;;5034866;28;20063;-68
2021/06/16 03:11:29;;;;;;;;;;;17.40;57.90;16.70;101646.00;;;;5038244;28;20415;-67
2021/06/16 03:13:55;;;;;;;9.05;3.05;;;17.40;59.10;16.80;101644.00;;;;5055507;28;20691;-67
2021/06/16 03:16:21;;;;;;;6.88;3.05;;;17.40;58.70;16.80;101647.00;;;;5042673;28;20059;-67
2021/06/16 03:18:49;;;;;;;7.75;2.83;;;17.40;58.80;16.80;101639.00;;;;5038855;28;20033;-67
2021/06/16 03:21:17;;;;;;;6.88;2.92;;;17.40;58.90;16.80;101639.00;;;;5030396;28;20483;-68
2021/06/16 03:23:46;;;;;;;5.95;2.83;;;17.40;58.90;16.80;101637.00;;;;5039983;28;20029;-68
2021/06/16 03:26:13;;;;;;;8.80;3.05;;;17.40;58.30;16.80;101649.00;;;;5038279;28;20053;-68
2021/06/16 03:28:41;;;;;;;10.00;3.17;;;17.40;59.00;16.80;101649.00;;;;5022035;28;21277;-68
2021/06/16 03:31:08;;;;;;;7.97;3.63;;;17.40;58.50;16.80;101651.00;;;;5022358;28;20048;-68
2021/06/16 03:33:34;;;;;;;14.52;3.25;;;17.40;59.10;16.80;101649.00;;;;5039632;28;20041;-68
2021/06/16 03:36:00;;;;;;;7.13;3.03;;;17.40;59.00;16.90;101645.00;;;;5036723;28;20041;-68
2021/06/16 03:38:27;;;;;;;9.27;3.20;;;17.40;59.00;16.90;101654.00;;;;5020017;28;20041;-68
2021/06/16 03:40:54;;;;;;;7.43;3.10;;;17.40;58.20;16.90;101652.00;;;;5039994;28;20322;-68
2021/06/16 03:43:21;;;;;;;7.95;3.15;;;17.40;59.10;16.90;101650.00;;;;5040050;28;20295;-68
2021/06/16 03:45:48;;;;;;;9.32;3.35;;;17.50;59.20;16.90;101645.00;;;;5054956;28;20052;-67
2021/06/16 03:48:19;;;;;;;11.23;3.40;;;17.50;59.20;16.90;101634.00;;;;5037664;28;20040;-67
2021/06/16 03:50:47;;;;;;;8.48;3.38;;;17.50;59.20;16.90;101631.00;;;;5040824;28;20129;-68
2021/06/16 03:53:14;;;;;;;8.93;3.58;;;17.50;59.10;16.90;101634.00;;;;5040072;28;20668;-67
2021/06/16 03:55:43;;;;;;;10.32;3.20;;;17.50;59.30;16.90;101634.00;;;;5023750;28;20076;-66
2021/06/16 03:58:12;;;;;;;6.60;3.45;;;17.50;59.30;16.90;101617.00;;;;5023503;28;20100;-67
2021/06/16 04:00:39;;;;;;;9.82;3.30;;;17.50;59.20;16.90;101615.00;;;;5040558;28;20052;-67
2021/06/16 04:03:07;;;;;;;9.30;2.75;;;17.50;59.50;16.90;101621.00;;;;5056400;28;20056;-66
2021/06/16 04:05:35;;;;;;;9.57;3.20;;;17.50;59.30;16.90;101615.00;;;;5039548;28;20072;-68
2021/06/16 04:08:01;;;;;;;6.30;2.70;;;17.50;59.10;17.00;101616.00;;;;5049126;28;20040;-68
2021/06/16 04:10:28;;;;;;;9.20;2.90;;;17.50;59.10;17.00;101600.00;;;;5037733;28;20144;-69
2021/06/16 04:12:54;;;;;;;7.68;3.42;;;17.50;59.20;17.00;101608.00;;;;5036118;28;20037;-67
2021/06/16 04:15:20;;;;;;;8.32;3.03;;;17.60;59.20;17.00;101601.00;;;;5040912;28;20056;-67
2021/06/16 04:17:47;;;;;;;5.90;2.73;;;17.60;59.40;17.10;101607.00;;;;5032644;28;20045;-67
2021/06/16 04:20:15;;;;;;;7.10;3.20;;;17.60;59.30;17.10;101615.00;;;;5036612;28;20303;-67
2021/06/16 04:22:42;;;;;;;9.18;3.33;;;17.60;59.20;17.10;101604.00;;;;5039445;28;20052;-66
2021/06/16 04:25:10;;;;;;;8.25;3.22;;;17.70;59.40;17.10;101619.00;;;;5033398;28;20051;-67
2021/06/16 04:27:37;;;;;;;8.75;3.00;;;17.70;59.30;17.20;101604.00;;;;5038050;28;20067;-67
2021/06/16 04:30:23;;;;;;;7.45;2.72;;;17.70;58.80;17.20;101608.00;;;;5039916;28;20662;-67
2021/06/16 04:32:49;;;;;;;6.93;3.10;;;17.70;58.60;17.20;101613.00;;;;5039132;28;20048;-68
2021/06/16 04:35:16;;;;;;;9.65;3.40;;;17.80;59.50;17.30;101612.00;;;;5039026;28;20029;-68
2021/06/16 04:37:41;;;;;;;8.18;3.22;;;17.80;59.50;17.40;101603.00;;;;5037001;28;20048;-68
2021/06/16 04:40:09;;;;;;;7.18;3.50;;;17.90;59.40;17.40;101595.00;;;;5041548;28;20114;-70
2021/06/16 04:42:35;;;;;;;10.57;3.67;;;17.90;60.80;17.50;101598.00;;;;5037686;28;20052;-68
2021/06/16 04:45:03;;;;;;;7.88;3.13;;;17.90;59.50;17.60;101592.00;;;;5037690;28;20037;-68
2021/06/16 04:47:29;;;;;;;7.05;3.22;;;17.80;59.50;17.60;101593.00;;;;5020942;28;20040;-68
2021/06/16 04:49:55;;;;;;;8.70;3.83;;;18.10;59.40;17.70;101594.00;;;;5038202;28;20420;-68
2021/06/16 04:52:21;;;;;;;6.65;3.28;;;18.10;58.70;17.70;101589.00;;;;5039129;28;20053;-68
2021/06/16 04:54:47;;;;;;;9.52;3.70;;;18.20;58.50;17.80;101590.00;;;;5037192;28;20083;-68
2021/06/16 04:57:13;;;;;;;9.90;3.60;;;18.20;59.20;17.90;101588.00;;;;5037363;28;20049;-67
2021/06/16 04:59:39;;;;;;;9.10;3.53;;;18.30;59.30;18.00;101583.00;;;;5035801;28;20597;-68
2021/06/16 05:02:05;;;;;;;7.72;3.20;;;18.40;59.10;18.10;101585.00;;;;5039445;28;20966;-67
2021/06/16 05:04:31;;;;;;;7.22;3.30;;;18.50;58.20;18.20;101586.00;;;;5040319;28;20071;-68
2021/06/16 05:06:57;;;;;;;9.30;3.00;;;18.50;58.90;18.30;101579.00;;;;5037263;28;20044;-67
2021/06/16 05:09:23;;;;;;;9.25;3.70;;;18.60;58.60;18.40;101585.00;;;;5040808;28;20148;-67
2021/06/16 05:11:49;;;;;;;8.25;2.85;;;18.70;58.70;18.50;101577.00;;;;5039284;28;20083;-67
2021/06/16 05:14:15;;;;;;;9.70;3.40;;;18.80;57.30;18.60;101575.00;;;;5035791;28;20053;-67
2021/06/16 05:16:42;;;;;;;12.25;4.10;;;18.90;58.40;18.70;101577.00;;;;5038274;28;20047;-67
2021/06/16 05:19:15;;;;;;;9.83;2.87;;;17.80;57.70;18.80;101577.00;;;;5038009;28;20048;-67
2021/06/16 05:21:43;;;;;;;10.05;3.20;;;19.10;58.20;18.90;101582.00;;;;5038048;28;20040;-68
2021/06/16 05:24:09;;;;;;;6.32;3.30;;;19.20;57.00;19.00;101571.00;;;;5037266;28;20111;-67
2021/06/16 05:26:37;;;;;;;7.88;3.22;;;19.30;57.90;19.10;101590.00;;;;5036200;28;20045;-67
2021/06/16 05:29:06;;;;;;;8.30;3.60;;;19.40;57.70;19.20;101575.00;;;;5020472;28;20610;-68
2021/06/16 05:31:32;;;;;;;8.10;3.85;;;19.50;56.70;19.20;101586.00;;;;5035709;28;20147;-67
2021/06/16 05:33:59;;;;;;;9.40;3.95;;;19.50;57.50;19.30;101583.00;;;;5038423;28;20037;-67
2021/06/16 05:36:25;;;;;;;9.73;3.85;;;19.60;57.50;19.40;101582.00;;;;5037783;28;20041;-67
2021/06/16 05:38:52;;;;;;;8.05;3.63;;;19.70;57.40;19.50;101578.00;;;;5039209;28;20491;-67
2021/06/16 05:41:18;;;;;;;9.55;3.40;;;19.80;57.20;19.60;101571.00;;;;5037731;28;20045;-67
2021/06/16 05:43:43;;;;;;;8.57;3.90;;;19.90;57.00;19.70;101573.00;;;;5037891;28;20052;-67
2021/06/16 05:46:11;;;;;;;8.50;3.90;;;20.00;57.00;19.70;101578.00;;;;5036268;28;20060;-67
2021/06/16 05:48:37;;;;;;;;;;;20.00;57.00;19.60;101568.00;;;;5035248;28;20124;-67
2021/06/16 05:51:03;;;;;;;7.88;3.80;;;20.00;57.00;19.70;101578.00;;;;5036584;28;19928;-67
2021/06/16 05:53:29;;;;;;;10.30;3.72;;;20.10;57.10;19.80;101576.00;;;;5039012;28;20579;-67
2021/06/16 05:55:55;;;;;;;12.13;3.90;;;20.10;57.00;19.90;101562.00;;;;5037161;28;20128;-67
2021/06/16 05:58:21;;;;;;;7.07;3.30;;;20.20;57.10;20.00;101567.00;;;;5038695;28;20040;-67
2021/06/16 06:00:48;;;;;;;10.80;3.30;;;20.30;57.10;20.10;101573.00;;;;5038831;28;20040;-68
2021/06/16 06:03:14;;;;;;;7.00;3.30;;;20.40;56.90;20.30;101568.00;;;;5053127;28;20291;-68
2021/06/16 06:05:40;;;;;;;10.18;4.00;;;20.50;56.90;20.40;101568.00;;;;5054913;28;20792;-68
2021/06/16 06:08:07;;;;;;;8.98;3.00;;;20.60;56.60;20.50;101569.00;;;;5038409;28;20074;-67
2021/06/16 06:10:34;;;;;;;11.63;3.80;;;20.70;56.60;20.70;101573.00;;;;5038087;28;20044;-67
2021/06/16 06:13:00;;;;;;;6.22;2.95;;;20.80;56.20;20.80;101572.00;;;;5037972;28;20045;-66
2021/06/16 06:15:26;;;;;;;9.67;3.43;;;21.00;56.10;20.90;101557.00;;;;5037783;28;20599;-67
2021/06/16 06:17:53;;;;;;;15.17;3.30;;;21.10;55.90;21.10;101563.00;;;;5033481;28;20049;-67
2021/06/16 06:20:19;;;;;;;7.68;2.90;;;21.20;55.90;21.20;101555.00;;;;5040957;28;20095;-68
2021/06/16 06:22:45;;;;;;;10.88;3.35;;;21.30;55.30;21.30;101559.00;;;;5025836;28;20149;-68
2021/06/16 06:25:12;;;;;;;8.57;3.03;;;21.50;55.50;21.40;101558.00;;;;5043661;28;20524;-67
2021/06/16 06:27:39;;;;;;;7.13;3.28;;;21.50;55.10;21.50;101557.00;;;;5040372;28;20049;-67
2021/06/16 06:30:07;;;;;;;9.70;3.33;;;21.60;54.90;21.50;101552.00;;;;5037572;28;20044;-67
2021/06/16 06:32:33;;;;;;;6.75;3.33;;;21.70;53.70;21.60;101557.00;;;;5040232;28;20079;-67
2021/06/16 06:34:59;;;;;;;9.63;3.60;;;21.80;55.00;21.70;101553.00;;;;5039342;28;20112;-67
2021/06/16 06:37:25;;;;;;;12.00;3.50;;;21.90;54.90;21.80;101551.00;;;;5039908;28;20621;-67
2021/06/16 06:39:51;;;;;;;6.78;3.35;;;22.00;54.60;21.90;101548.00;;;;5039712;28;20073;-68
2021/06/16 06:42:18;;;;;;;8.43;3.70;;;22.10;54.40;22.10;101553.00;;;;5038961;28;20029;-67
2021/06/16 06:44:44;;;;;;;6.40;3.10;;;22.20;54.30;22.30;101546.00;;;;5038338;28;20379;-66
2021/06/16 06:47:10;;;;;;;8.17;3.47;;;22.40;54.60;22.40;101545.00;;;;5039425;28;20119;-67
2021/06/16 06:49:36;;;;;;;10.90;4.60;;;22.50;54.10;22.40;101542.00;;;;5040696;28;20872;-67
2021/06/16 06:52:04;;;;;;;8.95;3.92;;;22.60;53.80;22.50;101538.00;;;;5038422;28;20049;-67
2021/06/16 06:54:29;;;;;;;11.45;4.25;;;22.60;53.70;22.60;101543.00;;;;5042788;28;20037;-68
2021/06/16 06:56:56;;;;;;;9.57;4.03;;;22.70;53.60;22.70;101533.00;;;;5040687;28;20033;-67
2021/06/16 06:59:22;;;;;;;10.98;3.72;;;22.80;53.50;22.70;101525.00;;;;5038258;28;20041;-67
2021/06/16 07:01:47;;;;;;;8.97;4.07;;;22.90;53.50;22.80;101527.00;;;;5038892;28;20154;-67
2021/06/16 07:04:13;;;;;;;9.07;3.83;;;22.90;53.20;22.90;101523.00;;;;5040116;28;20099;-67
2021/06/16 07:06:39;;;;;;;9.97;4.30;;;23.10;53.40;23.00;101519.00;;;;5041298;28;20049;-67
2021/06/16 07:09:05;;;;;;;8.83;4.00;;;23.10;53.20;23.00;101516.00;;;;5041351;28;20337;-67
2021/06/16 07:11:31;;;;;;;8.00;4.23;;;23.20;53.30;23.20;101513.00;;;;5040500;28;20060;-67
2021/06/16 07:13:58;;;;;;;9.05;4.50;;;23.20;53.10;23.30;101522.00;;;;5039684;28;20045;-67
2021/06/16 07:16:23;;;;;;;12.25;4.50;;;23.40;53.30;23.40;101518.00;;;;5033042;28;20044;-67
2021/06/16 07:18:51;;;;;;;13.40;5.23;;;23.50;52.80;23.40;101512.00;;;;5040861;28;20590;-67
2021/06/16 07:21:18;;;;;;;8.40;4.80;;;23.60;52.60;23.40;101513.00;;;;5036550;28;20045;-67
2021/06/16 07:23:44;;;;;;;9.82;3.88;;;23.60;52.50;23.50;101507.00;;;;5042019;28;20395;-68
2021/06/16 07:26:10;;;;;;;7.15;3.75;;;23.70;52.60;23.60;101510.00;;;;5039200;28;20041;-68
2021/06/16 07:28:37;;;;;;;10.70;4.40;;;23.70;52.10;23.70;101516.00;;;;5041207;28;20033;-68
2021/06/16 07:31:03;;;;;;;8.07;3.72;;;23.90;50.90;23.90;101517.00;;;;5054625;28;20037;-67
2021/06/16 07:33:31;;;;;;;13.23;4.45;;;23.90;51.70;24.10;101515.00;;;;5040780;28;20037;-68
2021/06/16 07:35:56;;;;;;;7.82;3.67;;;24.10;51.20;24.10;101509.00;;;;5038612;28;20747;-67
2021/06/16 07:38:22;;;;;;;8.07;3.45;;;24.20;51.40;24.30;101507.00;;;;5039258;28;20033;-68
2021/06/16 07:40:48;;;;;;;8.82;3.50;;;24.30;51.50;24.40;101500.00;;;;5043775;28;20040;-67
2021/06/16 07:43:15;;;;;;;9.00;3.60;;;24.40;51.00;24.50;101497.00;;;;5039314;28;20037;-67
2021/06/16 07:45:42;;;;;;;6.05;3.58;;;24.60;50.20;24.50;101494.00;;;;5040466;28;20072;-67
2021/06/16 07:48:08;;;;;;;6.13;3.00;;;24.60;50.00;24.60;101501.00;;;;5041916;28;20041;-67
2021/06/16 07:50:36;;;;;;;6.88;2.95;;;24.70;49.30;24.60;101493.00;;;;5041332;28;20048;-67
2021/06/16 07:53:06;;;;;;;6.53;2.38;;;24.70;48.90;24.70;101490.00;;;;5040244;28;20040;-67
2021/06/16 07:55:34;;;;;;;6.65;2.40;;;24.80;47.80;24.70;101482.00;;;;5042282;28;20657;-67
2021/06/16 07:58:02;;;;;;;4.60;2.22;;;24.80;47.50;24.80;101479.00;;;;5033430;28;20071;-67
2021/06/16 08:00:30;;;;;;;6.88;2.33;;;24.90;47.30;24.90;101477.00;;;;5043052;28;20049;-67
2021/06/16 08:02:57;;;;;;;6.50;2.38;;;25.00;46.80;25.00;101485.00;;;;5051311;28;20876;-67
2021/06/16 08:05:22;;;;;;;6.00;2.03;;;25.10;47.80;25.00;101495.00;;;;5025711;28;20041;-67
2021/06/16 08:07:48;;;;;;;3.70;2.17;;;25.10;46.50;24.90;101476.00;;;;5038310;28;20033;-67
2021/06/16 08:10:15;;;;;;;4.60;2.20;;;25.10;46.20;25.10;101484.00;;;;5040741;28;20142;-67
2021/06/16 08:12:41;;;;;;;4.90;2.28;;;25.10;46.10;25.10;101471.00;;;;5038001;28;20080;-67
2021/06/16 08:15:09;;;;;;;6.28;2.42;;;25.30;45.70;25.30;101467.00;;;;5041755;28;20108;-67
2021/06/16 08:17:35;;;;;;;5.32;2.33;;;25.40;45.40;25.50;101477.00;;;;5040217;28;20058;-67
2021/06/16 08:20:03;;;;;;;6.18;2.20;;;25.50;46.40;25.70;101469.00;;;;5036367;28;20036;-68
2021/06/16 08:22:29;;;;;;;6.28;2.45;;;25.60;45.20;25.80;101482.00;;;;5036291;28;20190;-67
2021/06/16 08:25:00;;;;;;;3.83;2.40;;;25.80;44.80;25.90;101478.00;;;;5042400;28;20033;-67
2021/06/16 08:27:27;;;;;;;4.57;2.20;;;25.90;44.50;26.00;101474.00;;;;5039617;28;20056;-67
2021/06/16 08:29:53;;;;;;;4.90;2.30;;;26.00;44.50;26.20;101474.00;;;;5037933;28;20033;-67
2021/06/16 08:32:19;;;;;;;5.85;2.45;;;26.20;41.60;26.30;101481.00;;;;5048056;28;20041;-67
2021/06/16 08:34:45;;;;;;;5.80;2.33;;;26.30;44.30;26.40;101482.00;;;;5037832;28;20049;-67
2021/06/16 08:37:11;;;;;;;3.72;2.10;;;26.40;43.70;26.50;101475.00;;;;5036997;28;20044;-67
2021/06/16 08:39:37;;;;;;;5.50;2.80;;;26.50;43.90;26.40;101474.00;;;;5039540;28;20037;-68
2021/06/16 08:42:03;;;;;;;5.50;2.60;;;26.70;43.20;26.40;101463.00;;;;5040045;28;20041;-68
2021/06/16 08:44:31;;;;;;;3.65;2.30;;;26.50;43.40;26.40;101463.00;;;;5035752;28;20127;-68
2021/06/16 08:46:57;;;;;;;4.72;2.35;;;26.50;43.50;26.50;101464.00;;;;5042112;28;20033;-68
2021/06/16 08:49:25;;;;;;;6.95;2.90;;;26.50;43.10;26.50;101463.00;;;;5032842;28;20111;-68
2021/06/16 08:51:51;;;;;;;4.85;2.67;;;26.60;42.80;26.60;101455.00;;;;5039005;28;20036;-68
2021/06/16 08:54:17;;;;;;;4.75;2.60;;;26.60;42.60;26.60;101456.00;;;;5041166;28;20045;-68
2021/06/16 08:56:43;;;;;;;4.40;2.28;;;26.70;42.90;26.60;101467.00;;;;5040508;28;20040;-68
2021/06/16 08:59:09;;;;;;;5.07;2.95;;;26.70;42.90;26.70;101462.00;;;;5038634;28;20037;-68
2021/06/16 09:01:35;;;;;;;5.90;2.45;;;26.70;42.50;26.70;101451.00;;;;5040337;28;20045;-67
2021/06/16 09:04:00;;;;;;;4.45;2.33;;;26.80;42.50;26.80;101452.00;;;;5034309;28;20053;-67
2021/06/16 09:06:29;;;;;;;4.55;2.33;;;26.90;42.40;26.90;101448.00;;;;5041389;28;20044;-66
2021/06/16 09:09:06;;;;;;;6.50;2.20;;;26.90;42.50;27.00;101450.00;;;;5039558;28;20041;-67
2021/06/16 09:11:43;;;;;;;3.33;2.10;;;27.10;41.80;26.90;101442.00;;;;5041351;28;20476;-68
2021/06/16 09:14:22;;;;;;;6.85;2.45;;;27.10;41.20;27.00;101444.00;;;;5040182;28;20223;-68
2021/06/16 09:16:50;;;;;;;8.32;2.83;;;27.10;41.50;27.00;101448.00;;;;5039141;28;20095;-67
2021/06/16 09:19:33;;;;;;;6.57;2.13;;;27.10;41.30;27.00;101452.00;;;;5039386;28;20037;-67
2021/06/16 09:22:07;;;;;;;4.28;2.42;;;27.20;41.10;27.20;101438.00;;;;5038311;28;20044;-68
2021/06/16 09:24:46;;;;;;;5.70;2.50;;;27.30;40.40;27.40;101433.00;;;;5021922;28;20067;-68
2021/06/16 09:27:41;;;;;;;2.85;2.47;;;27.40;40.50;27.60;101436.00;;;;5036771;28;20048;-68
2021/06/16 09:30:28;;;;;;;5.88;3.28;;;27.70;40.00;27.70;101439.00;;;;5039738;28;20053;-68
2021/06/16 09:33:05;;;;;;;7.30;2.75;;;27.70;38.70;27.80;101441.00;;;;5053297;28;20049;-68
2021/06/16 09:35:35;;;;;;;4.78;2.85;;;27.80;40.30;27.90;101428.00;;;;5012665;28;20559;-68
2021/06/16 09:38:06;;;;;;;4.72;2.95;;;27.90;39.80;27.70;101438.00;;;;5034472;28;20045;-68
2021/06/16 09:40:41;;;;;;;5.95;2.35;;;27.80;40.10;27.60;101436.00;;;;5040464;28;20098;-68
2021/06/16 09:43:13;;;;;;;11.60;2.80;;;27.80;40.40;27.70;101430.00;;;;5037887;28;20033;-68
2021/06/16 09:45:44;;;;;;;7.85;2.97;;;27.80;40.10;27.80;101427.00;;;;5038277;28;20083;-68
2021/06/16 09:48:27;;;;;;;5.47;2.30;;;27.90;37.90;27.90;101435.00;;;;5035331;28;20033;-68
2021/06/16 09:51:28;;;;;;;6.47;2.92;;;28.00;39.60;28.00;101432.00;;;;5035282;28;20828;-68
2021/06/16 09:56:59;;;;;;;5.63;2.42;;;28.20;39.10;28.00;101419.00;;;;5042377;28;20057;-68
2021/06/16 09:59:43;;;;;;;4.28;2.67;;;28.20;39.00;28.20;101423.00;;;;5043899;28;20128;-68
2021/06/16 10:02:22;;;;;;;8.90;2.65;;;28.30;40.40;28.30;101411.00;;;;5040225;28;20814;-68
2021/06/16 10:04:56;;;;;;;4.68;3.10;;;28.40;39.10;28.50;101414.00;;;;5043107;28;20557;-68
2021/06/16 10:07:30;;;;;;;5.63;3.08;;;28.50;38.70;28.60;101410.00;;;;5042432;28;20057;-68
2021/06/16 10:10:08;;;;;;;5.00;3.03;;;28.60;38.60;28.50;101405.00;;;;5044004;28;20435;-67
2021/06/16 10:12:40;;;;;;;5.10;2.60;;;28.60;38.10;28.50;101405.00;;;;5041269;28;20044;-68
2021/06/16 10:15:14;;;;;;;7.85;2.95;;;28.60;38.60;28.60;101408.00;;;;5044552;28;20044;-67
2021/06/16 10:17:40;;;;;;;4.50;2.95;;;28.70;38.30;28.40;101408.00;;;;5036491;28;20052;-68
2021/06/16 10:20:07;;;;;;;;;;;28.60;38.60;28.30;101405.00;;;;5042000;28;20060;-68
2021/06/16 10:22:33;;;;;;;4.20;2.53;;;28.60;37.80;28.60;101404.00;;;;5054594;28;19947;-68
2021/06/16 10:25:00;;;;;;;8.02;2.72;;;28.70;38.80;28.80;101396.00;;;;5020717;28;20037;-68
2021/06/16 10:27:28;;;;;;;5.25;2.78;;;28.80;38.60;29.00;101386.00;;;;5040663;28;20041;-68
2021/06/16 10:30:12;;;;;;;5.25;2.65;;;29.00;38.30;28.80;101392.00;;;;5043561;28;20037;-68
2021/06/16 10:32:44;;;;;;;6.13;2.60;;;28.90;36.90;28.90;101388.00;;;;5037944;28;20069;-68
2021/06/16 10:35:34;;;;;;;5.20;2.72;;;29.00;38.70;29.00;101384.00;;;;5041113;28;20043;-68
2021/06/16 10:38:16;;;;;;;3.40;2.60;;;29.10;38.20;29.10;101381.00;;;;5038728;28;20048;-68
2021/06/16 10:40:53;;;;;;;6.53;2.85;;;29.30;37.40;29.30;101384.00;;;;5059254;28;20703;-68
2021/06/16 10:43:50;;;;;;;5.55;2.90;;;29.40;38.30;29.30;101388.00;;;;5045684;28;20053;-68
2021/06/16 10:46:16;;;;;;;5.88;3.15;;;29.40;37.70;29.50;101389.00;;;;5041979;28;20081;-68
2021/06/16 10:48:54;;;;;;;5.85;3.10;;;29.50;37.90;29.70;101387.00;;;;5043949;28;20102;-68
2021/06/16 10:51:35;;;;;;;3.78;2.58;;;29.70;37.70;29.90;101393.00;;;;5042067;28;20126;-68
2021/06/16 10:54:19;;;;;;;6.10;3.17;;;29.80;37.10;30.00;101391.00;;;;5043040;28;20502;-68
2021/06/16 10:56:54;;;;;;;11.88;3.72;;;30.00;37.00;30.10;101389.00;;;;5041045;28;20079;-68
2021/06/16 10:59:42;;;;;;;7.95;3.28;;;30.10;37.00;30.20;101384.00;;;;5041193;28;20035;-68